sensor_id;sensor_type;location;lat;lon;timestamp;pressure;altitude;pressure_sealevel;temperature;humidity
41706;BME280;27385;51.096;17.190;2022-08-03T00:00:24;100520.31;;;16.49;73.11
41706;BME280;27385;51.096;17.190;2022-08-03T00:03:05;100525.16;;;16.45;73.35
41706;BME280;27385;51.096;17.190;2022-08-03T00:05:36;100522.41;;;16.41;73.35
41706;BME280;27385;51.096;17.190;2022-08-03T00:08:08;100521.13;;;16.38;73.51
41706;BME280;27385;51.096;17.190;2022-08-03T00:10:40;100522.14;;;16.36;73.62
41706;BME280;27385;51.096;17.190;2022-08-03T00:13:12;100521.52;;;16.33;73.73
41706;BME280;27385;51.096;17.190;2022-08-03T00:15:43;100520.55;;;16.29;73.74
41706;BME280;27385;51.096;17.190;2022-08-03T00:18:15;100521.32;;;16.25;73.95
41706;BME280;27385;51.096;17.190;2022-08-03T00:20:46;100522.29;;;16.20;73.91
41706;BME280;27385;51.096;17.190;2022-08-03T00:23:17;100522.95;;;16.17;73.96
41706;BME280;27385;51.096;17.190;2022-08-03T00:25:49;100520.89;;;16.13;74.16
41706;BME280;27385;51.096;17.190;2022-08-03T00:28:20;100524.84;;;16.10;74.05
41706;BME280;27385;51.096;17.190;2022-08-03T00:30:54;100521.52;;;16.07;74.19
41706;BME280;27385;51.096;17.190;2022-08-03T00:33:28;100524.33;;;16.05;74.27
41706;BME280;27385;51.096;17.190;2022-08-03T00:36:00;100521.71;;;16.03;74.25
41706;BME280;27385;51.096;17.190;2022-08-03T00:38:31;100519.80;;;15.99;74.30
41706;BME280;27385;51.096;17.190;2022-08-03T00:41:02;100518.48;;;15.95;74.52
41706;BME280;27385;51.096;17.190;2022-08-03T00:43:33;100518.94;;;15.92;74.63
41706;BME280;27385;51.096;17.190;2022-08-03T00:46:04;100520.00;;;15.88;74.76
41706;BME280;27385;51.096;17.190;2022-08-03T00:48:36;100517.73;;;15.85;74.69
41706;BME280;27385;51.096;17.190;2022-08-03T00:51:07;100519.22;;;15.81;74.80
41706;BME280;27385;51.096;17.190;2022-08-03T00:53:40;100522.73;;;15.78;74.89
41706;BME280;27385;51.096;17.190;2022-08-03T00:56:13;100523.09;;;15.75;75.02
41706;BME280;27385;51.096;17.190;2022-08-03T00:58:46;100522.67;;;15.73;74.88
41706;BME280;27385;51.096;17.190;2022-08-03T01:01:17;100522.21;;;15.69;74.98
41706;BME280;27385;51.096;17.190;2022-08-03T01:03:48;100516.16;;;15.65;75.06
41706;BME280;27385;51.096;17.190;2022-08-03T01:06:27;100517.11;;;15.62;75.42
41706;BME280;27385;51.096;17.190;2022-08-03T01:09:07;100519.47;;;15.59;75.41
41706;BME280;27385;51.096;17.190;2022-08-03T01:11:45;100518.70;;;15.58;75.35
41706;BME280;27385;51.096;17.190;2022-08-03T01:14:23;100517.40;;;15.54;75.43
41706;BME280;27385;51.096;17.190;2022-08-03T01:16:58;100514.95;;;15.50;75.82
41706;BME280;27385;51.096;17.190;2022-08-03T01:19:51;100515.64;;;15.48;75.88
41706;BME280;27385;51.096;17.190;2022-08-03T01:22:49;100516.15;;;15.46;75.82
41706;BME280;27385;51.096;17.190;2022-08-03T01:25:35;100517.55;;;15.43;76.21
41706;BME280;27385;51.096;17.190;2022-08-03T01:28:27;100516.96;;;15.39;76.18
41706;BME280;27385;51.096;17.190;2022-08-03T01:31:06;100514.39;;;15.36;76.27
41706;BME280;27385;51.096;17.190;2022-08-03T01:33:41;100513.52;;;15.33;76.27
41706;BME280;27385;51.096;17.190;2022-08-03T01:36:15;100511.66;;;15.30;76.36
41706;BME280;27385;51.096;17.190;2022-08-03T01:38:54;100510.41;;;15.25;76.60
41706;BME280;27385;51.096;17.190;2022-08-03T01:41:32;100508.55;;;15.23;76.82
41706;BME280;27385;51.096;17.190;2022-08-03T01:44:06;100507.52;;;15.21;76.72
41706;BME280;27385;51.096;17.190;2022-08-03T01:46:39;100505.38;;;15.18;76.75
41706;BME280;27385;51.096;17.190;2022-08-03T01:49:11;100508.63;;;15.18;76.78
41706;BME280;27385;51.096;17.190;2022-08-03T01:51:44;100501.47;;;15.16;76.90
41706;BME280;27385;51.096;17.190;2022-08-03T01:54:18;100503.52;;;15.15;77.04
41706;BME280;27385;51.096;17.190;2022-08-03T01:56:51;100504.21;;;15.13;77.02
41706;BME280;27385;51.096;17.190;2022-08-03T01:59:27;100502.16;;;15.11;77.13
41706;BME280;27385;51.096;17.190;2022-08-03T02:02:00;100502.20;;;15.09;77.16
41706;BME280;27385;51.096;17.190;2022-08-03T02:04:33;100498.72;;;15.07;77.41
41706;BME280;27385;51.096;17.190;2022-08-03T02:07:06;100496.86;;;15.05;77.54
41706;BME280;27385;51.096;17.190;2022-08-03T02:09:39;100495.07;;;15.04;77.72
41706;BME280;27385;51.096;17.190;2022-08-03T02:12:12;100495.06;;;15.03;77.87
41706;BME280;27385;51.096;17.190;2022-08-03T02:14:46;100494.61;;;15.02;77.75
41706;BME280;27385;51.096;17.190;2022-08-03T02:17:19;100490.60;;;15.00;78.02
41706;BME280;27385;51.096;17.190;2022-08-03T02:19:52;100482.52;;;14.98;78.21
41706;BME280;27385;51.096;17.190;2022-08-03T02:22:25;100483.42;;;14.96;78.40
41706;BME280;27385;51.096;17.190;2022-08-03T02:24:57;100483.67;;;14.93;78.35
41706;BME280;27385;51.096;17.190;2022-08-03T02:27:30;100480.04;;;14.92;78.45
41706;BME280;27385;51.096;17.190;2022-08-03T02:30:06;100483.19;;;14.90;78.55
41706;BME280;27385;51.096;17.190;2022-08-03T02:32:41;100484.10;;;14.88;78.70
41706;BME280;27385;51.096;17.190;2022-08-03T02:35:16;100483.28;;;14.86;78.76
41706;BME280;27385;51.096;17.190;2022-08-03T02:37:55;100487.51;;;14.85;78.86
41706;BME280;27385;51.096;17.190;2022-08-03T02:40:30;100485.00;;;14.84;79.03
41706;BME280;27385;51.096;17.190;2022-08-03T02:43:04;100481.94;;;14.84;78.93
41706;BME280;27385;51.096;17.190;2022-08-03T02:45:41;100482.35;;;14.84;79.09
41706;BME280;27385;51.096;17.190;2022-08-03T02:48:17;100478.05;;;14.84;79.22
41706;BME280;27385;51.096;17.190;2022-08-03T02:50:53;100482.55;;;14.85;79.38
41706;BME280;27385;51.096;17.190;2022-08-03T02:53:27;100485.83;;;14.85;79.71
41706;BME280;27385;51.096;17.190;2022-08-03T02:55:59;100486.54;;;14.86;79.63
41706;BME280;27385;51.096;17.190;2022-08-03T02:58:32;100489.20;;;14.85;79.96
41706;BME280;27385;51.096;17.190;2022-08-03T03:01:04;100490.11;;;14.86;80.22
41706;BME280;27385;51.096;17.190;2022-08-03T03:03:36;100491.91;;;14.87;80.39
41706;BME280;27385;51.096;17.190;2022-08-03T03:06:10;100492.98;;;14.88;80.54
41706;BME280;27385;51.096;17.190;2022-08-03T03:08:43;100492.94;;;14.88;80.53
41706;BME280;27385;51.096;17.190;2022-08-03T03:11:16;100496.63;;;14.90;80.86
41706;BME280;27385;51.096;17.190;2022-08-03T03:13:49;100500.47;;;14.90;80.81
41706;BME280;27385;51.096;17.190;2022-08-03T03:16:21;100495.26;;;14.92;81.00
41706;BME280;27385;51.096;17.190;2022-08-03T03:18:54;100494.66;;;14.94;81.08
41706;BME280;27385;51.096;17.190;2022-08-03T03:21:27;100494.26;;;14.95;81.23
41706;BME280;27385;51.096;17.190;2022-08-03T03:24:02;100490.23;;;14.96;81.50
41706;BME280;27385;51.096;17.190;2022-08-03T03:26:35;100498.98;;;14.99;81.69
41706;BME280;27385;51.096;17.190;2022-08-03T03:29:07;100495.16;;;15.01;81.83
41706;BME280;27385;51.096;17.190;2022-08-03T03:31:39;100498.08;;;15.01;82.12
41706;BME280;27385;51.096;17.190;2022-08-03T03:34:10;100501.97;;;15.03;82.09
41706;BME280;27385;51.096;17.190;2022-08-03T03:36:41;100499.27;;;15.05;82.21
41706;BME280;27385;51.096;17.190;2022-08-03T03:39:14;100500.72;;;15.08;82.47
41706;BME280;27385;51.096;17.190;2022-08-03T03:41:45;100504.81;;;15.10;82.48
41706;BME280;27385;51.096;17.190;2022-08-03T03:44:16;100504.21;;;15.12;82.76
41706;BME280;27385;51.096;17.190;2022-08-03T03:46:47;100502.48;;;15.14;82.74
41706;BME280;27385;51.096;17.190;2022-08-03T03:49:19;100504.64;;;15.17;82.87
41706;BME280;27385;51.096;17.190;2022-08-03T03:51:52;100507.01;;;15.20;83.15
41706;BME280;27385;51.096;17.190;2022-08-03T03:54:24;100505.95;;;15.23;83.25
41706;BME280;27385;51.096;17.190;2022-08-03T03:56:55;100503.44;;;15.26;83.33
41706;BME280;27385;51.096;17.190;2022-08-03T03:59:27;100506.48;;;15.30;83.25
41706;BME280;27385;51.096;17.190;2022-08-03T04:01:58;100504.92;;;15.34;83.21
41706;BME280;27385;51.096;17.190;2022-08-03T04:04:32;100505.34;;;15.37;83.52
41706;BME280;27385;51.096;17.190;2022-08-03T04:07:21;100505.98;;;15.41;83.82
41706;BME280;27385;51.096;17.190;2022-08-03T04:10:14;100503.20;;;15.45;83.46
41706;BME280;27385;51.096;17.190;2022-08-03T04:13:07;100503.77;;;15.48;83.77
41706;BME280;27385;51.096;17.190;2022-08-03T04:15:40;100507.52;;;15.51;83.65
41706;BME280;27385;51.096;17.190;2022-08-03T04:18:12;100505.48;;;15.54;83.83
41706;BME280;27385;51.096;17.190;2022-08-03T04:20:47;100506.06;;;15.57;83.75
41706;BME280;27385;51.096;17.190;2022-08-03T04:23:22;100506.52;;;15.59;83.84
41706;BME280;27385;51.096;17.190;2022-08-03T04:25:56;100508.98;;;15.63;83.95
41706;BME280;27385;51.096;17.190;2022-08-03T04:28:29;100508.64;;;15.66;84.01
41706;BME280;27385;51.096;17.190;2022-08-03T04:31:02;100515.70;;;15.69;84.05
41706;BME280;27385;51.096;17.190;2022-08-03T04:33:36;100513.36;;;15.72;84.10
41706;BME280;27385;51.096;17.190;2022-08-03T04:36:11;100515.88;;;15.75;84.19
41706;BME280;27385;51.096;17.190;2022-08-03T04:38:59;100513.94;;;15.77;84.12
41706;BME280;27385;51.096;17.190;2022-08-03T04:41:33;100519.27;;;15.82;84.40
41706;BME280;27385;51.096;17.190;2022-08-03T04:44:05;100517.02;;;15.85;84.69
41706;BME280;27385;51.096;17.190;2022-08-03T04:46:38;100517.44;;;15.88;84.67
41706;BME280;27385;51.096;17.190;2022-08-03T04:49:10;100520.77;;;15.92;84.56
41706;BME280;27385;51.096;17.190;2022-08-03T04:51:42;100519.95;;;15.95;84.74
41706;BME280;27385;51.096;17.190;2022-08-03T04:54:14;100520.48;;;16.01;84.79
41706;BME280;27385;51.096;17.190;2022-08-03T04:56:45;100521.25;;;16.06;84.93
41706;BME280;27385;51.096;17.190;2022-08-03T04:59:16;100525.36;;;16.10;84.86
41706;BME280;27385;51.096;17.190;2022-08-03T05:01:47;100527.61;;;16.14;84.88
41706;BME280;27385;51.096;17.190;2022-08-03T05:04:18;100525.00;;;16.17;84.84
41706;BME280;27385;51.096;17.190;2022-08-03T05:06:49;100523.33;;;16.21;85.12
41706;BME280;27385;51.096;17.190;2022-08-03T05:09:20;100522.96;;;16.25;84.86
41706;BME280;27385;51.096;17.190;2022-08-03T05:11:51;100518.30;;;16.29;84.77
41706;BME280;27385;51.096;17.190;2022-08-03T05:14:22;100520.92;;;16.33;84.73
41706;BME280;27385;51.096;17.190;2022-08-03T05:16:54;100520.50;;;16.36;84.72
41706;BME280;27385;51.096;17.190;2022-08-03T05:19:25;100521.42;;;16.40;84.70
41706;BME280;27385;51.096;17.190;2022-08-03T05:21:57;100524.30;;;16.44;84.77
41706;BME280;27385;51.096;17.190;2022-08-03T05:24:28;100523.49;;;16.50;84.84
41706;BME280;27385;51.096;17.190;2022-08-03T05:26:59;100524.30;;;16.56;84.82
41706;BME280;27385;51.096;17.190;2022-08-03T05:29:30;100526.41;;;16.64;84.86
41706;BME280;27385;51.096;17.190;2022-08-03T05:32:01;100523.02;;;16.70;84.81
41706;BME280;27385;51.096;17.190;2022-08-03T05:34:33;100520.39;;;16.78;84.91
41706;BME280;27385;51.096;17.190;2022-08-03T05:37:05;100522.31;;;16.87;85.05
41706;BME280;27385;51.096;17.190;2022-08-03T05:39:37;100527.23;;;16.96;85.12
41706;BME280;27385;51.096;17.190;2022-08-03T05:42:09;100525.41;;;17.07;85.36
41706;BME280;27385;51.096;17.190;2022-08-03T05:44:40;100533.11;;;17.19;85.21
41706;BME280;27385;51.096;17.190;2022-08-03T05:47:11;100530.65;;;17.29;85.00
41706;BME280;27385;51.096;17.190;2022-08-03T05:49:44;100533.54;;;17.41;85.03
41706;BME280;27385;51.096;17.190;2022-08-03T05:52:16;100535.16;;;17.53;84.98
41706;BME280;27385;51.096;17.190;2022-08-03T05:54:47;100536.73;;;17.69;85.22
41706;BME280;27385;51.096;17.190;2022-08-03T05:57:18;100538.70;;;17.83;84.94
41706;BME280;27385;51.096;17.190;2022-08-03T05:59:49;100541.40;;;17.96;84.89
41706;BME280;27385;51.096;17.190;2022-08-03T06:02:22;100539.56;;;18.09;84.45
41706;BME280;27385;51.096;17.190;2022-08-03T06:04:53;100541.48;;;18.21;84.26
41706;BME280;27385;51.096;17.190;2022-08-03T06:07:24;100538.77;;;18.34;84.23
41706;BME280;27385;51.096;17.190;2022-08-03T06:09:56;100539.09;;;18.48;84.15
41706;BME280;27385;51.096;17.190;2022-08-03T06:12:27;100539.29;;;18.62;84.01
41706;BME280;27385;51.096;17.190;2022-08-03T06:14:58;100541.84;;;18.73;83.49
41706;BME280;27385;51.096;17.190;2022-08-03T06:17:30;100544.38;;;18.85;83.65
41706;BME280;27385;51.096;17.190;2022-08-03T06:20:01;100541.56;;;18.98;83.48
41706;BME280;27385;51.096;17.190;2022-08-03T06:22:32;100542.75;;;19.10;83.21
41706;BME280;27385;51.096;17.190;2022-08-03T06:25:03;100544.92;;;19.23;82.80
41706;BME280;27385;51.096;17.190;2022-08-03T06:27:35;100543.33;;;19.34;82.57
41706;BME280;27385;51.096;17.190;2022-08-03T06:30:11;100543.98;;;19.49;82.90
41706;BME280;27385;51.096;17.190;2022-08-03T06:32:42;100542.80;;;19.65;82.49
41706;BME280;27385;51.096;17.190;2022-08-03T06:35:13;100542.21;;;19.81;82.30
41706;BME280;27385;51.096;17.190;2022-08-03T06:37:46;100543.48;;;19.96;81.94
41706;BME280;27385;51.096;17.190;2022-08-03T06:40:18;100543.80;;;20.09;81.30
41706;BME280;27385;51.096;17.190;2022-08-03T06:42:51;100547.66;;;20.23;80.96
41706;BME280;27385;51.096;17.190;2022-08-03T06:45:23;100549.04;;;20.37;81.11
41706;BME280;27385;51.096;17.190;2022-08-03T06:48:04;100545.33;;;20.53;80.65
41706;BME280;27385;51.096;17.190;2022-08-03T06:50:37;100548.34;;;20.66;79.55
41706;BME280;27385;51.096;17.190;2022-08-03T06:53:11;100547.63;;;20.77;78.66
41706;BME280;27385;51.096;17.190;2022-08-03T06:55:42;100547.53;;;20.88;78.32
41706;BME280;27385;51.096;17.190;2022-08-03T06:58:13;100548.64;;;20.98;77.80
41706;BME280;27385;51.096;17.190;2022-08-03T07:00:45;100546.35;;;21.10;77.47
41706;BME280;27385;51.096;17.190;2022-08-03T07:03:18;100548.11;;;21.22;76.81
41706;BME280;27385;51.096;17.190;2022-08-03T07:05:49;100549.21;;;21.32;76.56
41706;BME280;27385;51.096;17.190;2022-08-03T07:08:21;100548.61;;;21.43;76.51
41706;BME280;27385;51.096;17.190;2022-08-03T07:10:53;100544.36;;;21.57;76.16
41706;BME280;27385;51.096;17.190;2022-08-03T07:13:24;100541.60;;;21.69;75.49
41706;BME280;27385;51.096;17.190;2022-08-03T07:15:55;100541.96;;;21.85;75.24
41706;BME280;27385;51.096;17.190;2022-08-03T07:18:27;100541.60;;;21.99;74.64
41706;BME280;27385;51.096;17.190;2022-08-03T07:20:58;100541.24;;;22.10;74.33
41706;BME280;27385;51.096;17.190;2022-08-03T07:23:29;100538.42;;;22.20;73.95
41706;BME280;27385;51.096;17.190;2022-08-03T07:26:00;100543.23;;;22.30;73.25
41706;BME280;27385;51.096;17.190;2022-08-03T07:28:32;100543.11;;;22.42;72.91
41706;BME280;27385;51.096;17.190;2022-08-03T07:31:03;100547.39;;;22.57;72.06
41706;BME280;27385;51.096;17.190;2022-08-03T07:33:34;100542.40;;;22.69;71.63
41706;BME280;27385;51.096;17.190;2022-08-03T07:36:05;100539.23;;;22.80;71.39
41706;BME280;27385;51.096;17.190;2022-08-03T07:38:36;100539.19;;;22.90;70.81
41706;BME280;27385;51.096;17.190;2022-08-03T07:41:08;100537.78;;;23.03;70.60
41706;BME280;27385;51.096;17.190;2022-08-03T07:43:39;100541.04;;;23.16;70.42
41706;BME280;27385;51.096;17.190;2022-08-03T07:46:10;100537.67;;;23.27;70.24
41706;BME280;27385;51.096;17.190;2022-08-03T07:48:41;100538.38;;;23.40;69.78
41706;BME280;27385;51.096;17.190;2022-08-03T07:51:12;100538.70;;;23.52;69.07
41706;BME280;27385;51.096;17.190;2022-08-03T07:53:44;100539.29;;;23.64;68.44
41706;BME280;27385;51.096;17.190;2022-08-03T07:56:15;100538.23;;;23.73;67.90
41706;BME280;27385;51.096;17.190;2022-08-03T07:58:48;100539.83;;;23.82;66.90
41706;BME280;27385;51.096;17.190;2022-08-03T08:01:19;100538.44;;;23.92;66.39
41706;BME280;27385;51.096;17.190;2022-08-03T08:03:51;100541.85;;;24.05;66.44
41706;BME280;27385;51.096;17.190;2022-08-03T08:06:22;100544.17;;;24.18;66.04
41706;BME280;27385;51.096;17.190;2022-08-03T08:08:53;100540.74;;;24.29;65.32
41706;BME280;27385;51.096;17.190;2022-08-03T08:11:28;100539.35;;;24.41;64.64
41706;BME280;27385;51.096;17.190;2022-08-03T08:13:59;100537.80;;;24.51;63.91
41706;BME280;27385;51.096;17.190;2022-08-03T08:16:31;100542.14;;;24.60;63.48
41706;BME280;27385;51.096;17.190;2022-08-03T08:19:02;100542.39;;;24.69;63.47
41706;BME280;27385;51.096;17.190;2022-08-03T08:21:33;100541.27;;;24.76;62.63
41706;BME280;27385;51.096;17.190;2022-08-03T08:24:06;100539.20;;;24.86;61.79
41706;BME280;27385;51.096;17.190;2022-08-03T08:26:37;100537.21;;;24.99;61.69
41706;BME280;27385;51.096;17.190;2022-08-03T08:29:09;100539.03;;;25.09;61.16
41706;BME280;27385;51.096;17.190;2022-08-03T08:31:41;100538.63;;;25.17;60.41
41706;BME280;27385;51.096;17.190;2022-08-03T08:34:13;100535.13;;;25.23;59.75
41706;BME280;27385;51.096;17.190;2022-08-03T08:36:44;100539.55;;;25.32;59.12
41706;BME280;27385;51.096;17.190;2022-08-03T08:39:15;100535.42;;;25.37;59.20
41706;BME280;27385;51.096;17.190;2022-08-03T08:41:46;100538.05;;;25.47;59.10
41706;BME280;27385;51.096;17.190;2022-08-03T08:44:20;100536.77;;;25.57;58.45
41706;BME280;27385;51.096;17.190;2022-08-03T08:46:55;100535.93;;;25.65;57.80
41706;BME280;27385;51.096;17.190;2022-08-03T08:49:28;100539.59;;;25.74;57.74
41706;BME280;27385;51.096;17.190;2022-08-03T08:52:00;100534.11;;;25.83;57.11
41706;BME280;27385;51.096;17.190;2022-08-03T08:54:33;100531.28;;;25.91;56.10
41706;BME280;27385;51.096;17.190;2022-08-03T08:57:06;100532.88;;;26.01;56.51
41706;BME280;27385;51.096;17.190;2022-08-03T08:59:39;100529.64;;;26.11;56.19
41706;BME280;27385;51.096;17.190;2022-08-03T09:02:10;100529.60;;;26.17;55.77
41706;BME280;27385;51.096;17.190;2022-08-03T09:04:42;100532.02;;;26.26;55.49
41706;BME280;27385;51.096;17.190;2022-08-03T09:07:14;100529.61;;;26.31;55.25
41706;BME280;27385;51.096;17.190;2022-08-03T09:09:46;100533.59;;;26.37;54.93
41706;BME280;27385;51.096;17.190;2022-08-03T09:12:18;100529.16;;;26.42;54.38
41706;BME280;27385;51.096;17.190;2022-08-03T09:14:50;100527.06;;;26.46;54.11
41706;BME280;27385;51.096;17.190;2022-08-03T09:17:22;100524.14;;;26.51;53.86
41706;BME280;27385;51.096;17.190;2022-08-03T09:20:08;100530.43;;;26.56;53.33
41706;BME280;27385;51.096;17.190;2022-08-03T09:22:52;100529.51;;;26.63;52.95
41706;BME280;27385;51.096;17.190;2022-08-03T09:25:33;100527.00;;;26.72;52.51
41706;BME280;27385;51.096;17.190;2022-08-03T09:28:11;100522.95;;;26.81;52.28
41706;BME280;27385;51.096;17.190;2022-08-03T09:30:44;100520.98;;;26.93;52.10
41706;BME280;27385;51.096;17.190;2022-08-03T09:33:15;100520.24;;;27.05;51.67
41706;BME280;27385;51.096;17.190;2022-08-03T09:35:49;100517.20;;;27.13;51.63
41706;BME280;27385;51.096;17.190;2022-08-03T09:38:22;100517.34;;;27.23;50.87
41706;BME280;27385;51.096;17.190;2022-08-03T09:40:55;100520.47;;;27.33;50.62
41706;BME280;27385;51.096;17.190;2022-08-03T09:43:28;100517.94;;;27.37;50.28
41706;BME280;27385;51.096;17.190;2022-08-03T09:46:16;100519.52;;;27.42;49.76
41706;BME280;27385;51.096;17.190;2022-08-03T09:48:47;100511.44;;;27.48;49.74
41706;BME280;27385;51.096;17.190;2022-08-03T09:51:24;100512.79;;;27.54;49.38
41706;BME280;27385;51.096;17.190;2022-08-03T09:53:56;100511.39;;;27.58;49.09
41706;BME280;27385;51.096;17.190;2022-08-03T09:56:47;100512.90;;;27.66;48.68
41706;BME280;27385;51.096;17.190;2022-08-03T09:59:26;100510.95;;;27.68;48.70
41706;BME280;27385;51.096;17.190;2022-08-03T10:01:59;100507.45;;;27.73;48.52
41706;BME280;27385;51.096;17.190;2022-08-03T10:04:30;100507.71;;;27.79;48.24
41706;BME280;27385;51.096;17.190;2022-08-03T10:07:06;100506.50;;;27.87;47.36
41706;BME280;27385;51.096;17.190;2022-08-03T10:09:40;100506.80;;;27.94;47.51
41706;BME280;27385;51.096;17.190;2022-08-03T10:12:23;100502.61;;;28.03;47.32
41706;BME280;27385;51.096;17.190;2022-08-03T10:14:55;100504.73;;;28.08;46.99
41706;BME280;27385;51.096;17.190;2022-08-03T10:17:27;100498.92;;;28.13;46.74
41706;BME280;27385;51.096;17.190;2022-08-03T10:19:58;100498.42;;;28.19;46.71
41706;BME280;27385;51.096;17.190;2022-08-03T10:22:33;100498.00;;;28.24;46.20
41706;BME280;27385;51.096;17.190;2022-08-03T10:25:08;100496.22;;;28.27;45.66
41706;BME280;27385;51.096;17.190;2022-08-03T10:27:41;100494.70;;;28.30;46.06
41706;BME280;27385;51.096;17.190;2022-08-03T10:30:16;100493.23;;;28.33;45.89
41706;BME280;27385;51.096;17.190;2022-08-03T10:32:51;100489.05;;;28.36;45.91
41706;BME280;27385;51.096;17.190;2022-08-03T10:35:26;100490.28;;;28.37;45.47
41706;BME280;27385;51.096;17.190;2022-08-03T10:38:02;100488.45;;;28.37;45.13
41706;BME280;27385;51.096;17.190;2022-08-03T10:40:38;100485.11;;;28.39;45.23
41706;BME280;27385;51.096;17.190;2022-08-03T10:43:11;100480.94;;;28.41;45.18
41706;BME280;27385;51.096;17.190;2022-08-03T10:45:48;100481.48;;;28.44;45.19
41706;BME280;27385;51.096;17.190;2022-08-03T10:48:21;100479.98;;;28.50;45.19
41706;BME280;27385;51.096;17.190;2022-08-03T10:50:53;100483.10;;;28.57;45.34
41706;BME280;27385;51.096;17.190;2022-08-03T10:53:37;100483.39;;;28.64;45.15
41706;BME280;27385;51.096;17.190;2022-08-03T10:56:38;100480.88;;;28.71;44.57
41706;BME280;27385;51.096;17.190;2022-08-03T10:59:56;100479.16;;;28.78;44.50
41706;BME280;27385;51.096;17.190;2022-08-03T11:03:10;100480.05;;;28.85;44.43
41706;BME280;27385;51.096;17.190;2022-08-03T11:05:45;100480.73;;;28.89;44.24
41706;BME280;27385;51.096;17.190;2022-08-03T11:08:29;100482.91;;;28.94;44.07
41706;BME280;27385;51.096;17.190;2022-08-03T11:14:03;100476.66;;;28.96;43.43
41706;BME280;27385;51.096;17.190;2022-08-03T11:16:37;100476.32;;;28.96;43.56
41706;BME280;27385;51.096;17.190;2022-08-03T11:19:11;100473.48;;;28.94;43.43
41706;BME280;27385;51.096;17.190;2022-08-03T11:21:59;100471.36;;;28.95;43.00
41706;BME280;27385;51.096;17.190;2022-08-03T11:25:00;100468.75;;;28.93;43.08
41706;BME280;27385;51.096;17.190;2022-08-03T11:27:34;100470.19;;;29.00;42.52
41706;BME280;27385;51.096;17.190;2022-08-03T11:30:08;100469.13;;;29.03;42.47
41706;BME280;27385;51.096;17.190;2022-08-03T11:32:57;100468.20;;;29.08;42.68
41706;BME280;27385;51.096;17.190;2022-08-03T11:35:31;100463.02;;;29.12;41.87
41706;BME280;27385;51.096;17.190;2022-08-03T11:38:08;100463.35;;;29.06;41.74
41706;BME280;27385;51.096;17.190;2022-08-03T11:40:43;100462.67;;;29.07;41.27
41706;BME280;27385;51.096;17.190;2022-08-03T11:43:46;100459.39;;;29.06;40.92
41706;BME280;27385;51.096;17.190;2022-08-03T11:46:17;100459.23;;;28.90;40.32
41706;BME280;27385;51.096;17.190;2022-08-03T11:48:51;100461.79;;;28.84;40.14
41706;BME280;27385;51.096;17.190;2022-08-03T11:51:29;100453.94;;;28.77;39.91
41706;BME280;27385;51.096;17.190;2022-08-03T11:54:03;100454.55;;;28.76;40.30
41706;BME280;27385;51.096;17.190;2022-08-03T11:56:46;100451.52;;;28.81;40.36
41706;BME280;27385;51.096;17.190;2022-08-03T11:59:18;100449.45;;;28.92;40.64
41706;BME280;27385;51.096;17.190;2022-08-03T12:02:08;100448.55;;;28.95;39.47
41706;BME280;27385;51.096;17.190;2022-08-03T12:04:51;100445.45;;;28.98;40.03
41706;BME280;27385;51.096;17.190;2022-08-03T12:07:23;100440.69;;;29.07;39.38
41706;BME280;27385;51.096;17.190;2022-08-03T12:10:09;100444.34;;;29.13;39.18
41706;BME280;27385;51.096;17.190;2022-08-03T12:12:42;100445.17;;;29.18;38.71
41706;BME280;27385;51.096;17.190;2022-08-03T12:15:13;100442.63;;;29.21;38.33
41706;BME280;27385;51.096;17.190;2022-08-03T12:17:45;100438.15;;;29.22;38.13
41706;BME280;27385;51.096;17.190;2022-08-03T12:20:23;100433.34;;;29.22;37.60
41706;BME280;27385;51.096;17.190;2022-08-03T12:23:00;100435.08;;;29.16;37.40
41706;BME280;27385;51.096;17.190;2022-08-03T12:25:34;100429.74;;;29.13;37.17
41706;BME280;27385;51.096;17.190;2022-08-03T12:28:10;100426.38;;;29.08;36.95
41706;BME280;27385;51.096;17.190;2022-08-03T12:30:43;100428.21;;;29.04;37.21
41706;BME280;27385;51.096;17.190;2022-08-03T12:33:17;100426.02;;;29.03;37.78
41706;BME280;27385;51.096;17.190;2022-08-03T12:36:05;100426.34;;;29.10;37.87
41706;BME280;27385;51.096;17.190;2022-08-03T12:38:38;100426.73;;;29.11;38.14
41706;BME280;27385;51.096;17.190;2022-08-03T12:41:10;100426.36;;;29.15;37.95
41706;BME280;27385;51.096;17.190;2022-08-03T12:43:49;100418.39;;;29.18;38.15
41706;BME280;27385;51.096;17.190;2022-08-03T12:46:22;100421.27;;;29.22;38.35
41706;BME280;27385;51.096;17.190;2022-08-03T12:49:07;100421.35;;;29.28;38.45
41706;BME280;27385;51.096;17.190;2022-08-03T12:51:56;100419.35;;;29.33;37.76
41706;BME280;27385;51.096;17.190;2022-08-03T12:54:29;100414.27;;;29.24;37.35
41706;BME280;27385;51.096;17.190;2022-08-03T12:57:04;100419.25;;;29.24;37.52
41706;BME280;27385;51.096;17.190;2022-08-03T12:59:37;100415.77;;;29.29;37.35
41706;BME280;27385;51.096;17.190;2022-08-03T13:02:18;100412.98;;;29.26;37.05
41706;BME280;27385;51.096;17.190;2022-08-03T13:04:51;100407.80;;;29.26;37.70
41706;BME280;27385;51.096;17.190;2022-08-03T13:07:23;100411.29;;;29.32;37.79
41706;BME280;27385;51.096;17.190;2022-08-03T13:09:55;100409.46;;;29.39;37.83
41706;BME280;27385;51.096;17.190;2022-08-03T13:12:27;100412.39;;;29.47;37.79
41706;BME280;27385;51.096;17.190;2022-08-03T13:15:00;100413.06;;;29.56;37.14
41706;BME280;27385;51.096;17.190;2022-08-03T13:17:31;100410.27;;;29.58;36.87
41706;BME280;27385;51.096;17.190;2022-08-03T13:20:03;100413.82;;;29.57;37.05